sensor_id;sensor_type;location;lat;lon;timestamp;P1;durP1;ratioP1;P2;durP2;ratioP2
41101;SDS011;26845;50.190;19.178;2022-10-19T00:00:50;5.60;;;4.22;;
41101;SDS011;26845;50.190;19.178;2022-10-19T00:03:17;5.95;;;3.87;;
41101;SDS011;26845;50.190;19.178;2022-10-19T00:05:43;4.67;;;3.55;;
41101;SDS011;26845;50.190;19.178;2022-10-19T00:08:10;9.08;;;3.75;;
41101;SDS011;26845;50.190;19.178;2022-10-19T00:10:38;8.13;;;4.40;;
41101;SDS011;26845;50.190;19.178;2022-10-19T00:13:06;4.92;;;4.25;;
41101;SDS011;26845;50.190;19.178;2022-10-19T00:15:36;5.92;;;4.28;;
41101;SDS011;26845;50.190;19.178;2022-10-19T00:18:06;6.95;;;4.03;;
41101;SDS011;26845;50.190;19.178;2022-10-19T00:20:34;6.12;;;4.55;;
41101;SDS011;26845;50.190;19.178;2022-10-19T00:23:02;6.72;;;4.40;;
41101;SDS011;26845;50.190;19.178;2022-10-19T00:25:29;8.05;;;4.58;;
41101;SDS011;26845;50.190;19.178;2022-10-19T00:27:55;7.90;;;5.47;;
41101;SDS011;26845;50.190;19.178;2022-10-19T00:30:22;5.53;;;4.35;;
41101;SDS011;26845;50.190;19.178;2022-10-19T00:32:49;7.45;;;5.50;;
41101;SDS011;26845;50.190;19.178;2022-10-19T00:35:15;7.67;;;4.65;;
41101;SDS011;26845;50.190;19.178;2022-10-19T00:37:42;6.28;;;4.37;;
41101;SDS011;26845;50.190;19.178;2022-10-19T00:40:09;9.18;;;4.92;;
41101;SDS011;26845;50.190;19.178;2022-10-19T00:42:36;7.15;;;5.37;;
41101;SDS011;26845;50.190;19.178;2022-10-19T00:45:10;6.22;;;4.78;;
41101;SDS011;26845;50.190;19.178;2022-10-19T00:47:40;6.42;;;5.50;;
41101;SDS011;26845;50.190;19.178;2022-10-19T00:50:09;7.67;;;6.58;;
41101;SDS011;26845;50.190;19.178;2022-10-19T00:52:40;6.25;;;5.65;;
41101;SDS011;26845;50.190;19.178;2022-10-19T00:55:08;7.25;;;5.75;;
41101;SDS011;26845;50.190;19.178;2022-10-19T00:57:36;6.53;;;5.92;;
41101;SDS011;26845;50.190;19.178;2022-10-19T01:00:05;6.37;;;5.72;;
41101;SDS011;26845;50.190;19.178;2022-10-19T01:02:34;7.83;;;6.62;;
41101;SDS011;26845;50.190;19.178;2022-10-19T01:05:01;8.48;;;6.25;;
41101;SDS011;26845;50.190;19.178;2022-10-19T01:07:29;8.38;;;6.97;;
41101;SDS011;26845;50.190;19.178;2022-10-19T01:09:57;8.80;;;7.90;;
41101;SDS011;26845;50.190;19.178;2022-10-19T01:12:36;8.70;;;7.33;;
41101;SDS011;26845;50.190;19.178;2022-10-19T01:15:27;11.05;;;7.20;;
41101;SDS011;26845;50.190;19.178;2022-10-19T01:21:03;7.35;;;6.08;;
41101;SDS011;26845;50.190;19.178;2022-10-19T01:26:57;6.35;;;5.72;;
41101;SDS011;26845;50.190;19.178;2022-10-19T01:32:45;8.80;;;5.47;;
41101;SDS011;26845;50.190;19.178;2022-10-19T01:35:44;6.15;;;4.83;;
41101;SDS011;26845;50.190;19.178;2022-10-19T01:38:21;8.88;;;7.33;;
41101;SDS011;26845;50.190;19.178;2022-10-19T01:47:03;11.78;;;9.40;;
41101;SDS011;26845;50.190;19.178;2022-10-19T01:49:40;9.65;;;6.65;;
41101;SDS011;26845;50.190;19.178;2022-10-19T01:52:19;9.25;;;7.60;;
41101;SDS011;26845;50.190;19.178;2022-10-19T01:54:50;9.98;;;8.98;;
41101;SDS011;26845;50.190;19.178;2022-10-19T01:57:22;10.15;;;8.20;;
41101;SDS011;26845;50.190;19.178;2022-10-19T02:00:02;11.08;;;9.83;;
41101;SDS011;26845;50.190;19.178;2022-10-19T02:02:33;10.10;;;8.95;;
41101;SDS011;26845;50.190;19.178;2022-10-19T02:05:04;9.68;;;8.68;;
41101;SDS011;26845;50.190;19.178;2022-10-19T02:07:33;12.75;;;10.55;;
41101;SDS011;26845;50.190;19.178;2022-10-19T02:10:02;12.68;;;10.68;;
41101;SDS011;26845;50.190;19.178;2022-10-19T02:12:30;12.40;;;10.10;;
41101;SDS011;26845;50.190;19.178;2022-10-19T02:14:59;14.03;;;11.45;;
41101;SDS011;26845;50.190;19.178;2022-10-19T02:17:32;19.98;;;11.68;;
41101;SDS011;26845;50.190;19.178;2022-10-19T02:20:03;13.93;;;12.13;;
41101;SDS011;26845;50.190;19.178;2022-10-19T02:22:31;13.08;;;11.25;;
41101;SDS011;26845;50.190;19.178;2022-10-19T02:24:58;13.85;;;12.20;;
41101;SDS011;26845;50.190;19.178;2022-10-19T02:27:26;15.40;;;12.20;;
41101;SDS011;26845;50.190;19.178;2022-10-19T02:29:53;14.68;;;12.30;;
41101;SDS011;26845;50.190;19.178;2022-10-19T02:32:20;13.88;;;12.37;;
41101;SDS011;26845;50.190;19.178;2022-10-19T02:34:47;17.37;;;13.40;;
41101;SDS011;26845;50.190;19.178;2022-10-19T02:37:14;17.50;;;13.62;;
41101;SDS011;26845;50.190;19.178;2022-10-19T02:39:40;13.40;;;11.12;;
41101;SDS011;26845;50.190;19.178;2022-10-19T02:42:16;15.28;;;11.95;;
41101;SDS011;26845;50.190;19.178;2022-10-19T02:44:57;14.60;;;11.93;;
41101;SDS011;26845;50.190;19.178;2022-10-19T02:47:37;14.00;;;11.93;;
41101;SDS011;26845;50.190;19.178;2022-10-19T02:50:12;13.48;;;11.53;;
41101;SDS011;26845;50.190;19.178;2022-10-19T02:52:39;14.87;;;11.45;;
41101;SDS011;26845;50.190;19.178;2022-10-19T02:55:07;13.40;;;11.60;;
41101;SDS011;26845;50.190;19.178;2022-10-19T02:57:35;16.15;;;12.33;;
41101;SDS011;26845;50.190;19.178;2022-10-19T03:00:03;16.20;;;12.30;;
41101;SDS011;26845;50.190;19.178;2022-10-19T03:02:32;14.58;;;11.90;;
41101;SDS011;26845;50.190;19.178;2022-10-19T03:04:59;14.18;;;10.98;;
41101;SDS011;26845;50.190;19.178;2022-10-19T03:07:26;16.10;;;12.18;;
41101;SDS011;26845;50.190;19.178;2022-10-19T03:09:52;14.10;;;12.10;;
41101;SDS011;26845;50.190;19.178;2022-10-19T03:12:19;15.45;;;11.83;;
41101;SDS011;26845;50.190;19.178;2022-10-19T03:14:46;16.67;;;13.20;;
41101;SDS011;26845;50.190;19.178;2022-10-19T03:17:12;16.35;;;12.60;;
41101;SDS011;26845;50.190;19.178;2022-10-19T03:19:39;16.07;;;13.15;;
41101;SDS011;26845;50.190;19.178;2022-10-19T03:22:06;17.07;;;13.58;;
41101;SDS011;26845;50.190;19.178;2022-10-19T03:24:32;19.40;;;14.68;;
41101;SDS011;26845;50.190;19.178;2022-10-19T03:27:02;14.90;;;12.37;;
41101;SDS011;26845;50.190;19.178;2022-10-19T03:29:29;19.57;;;13.72;;
41101;SDS011;26845;50.190;19.178;2022-10-19T03:31:55;19.02;;;14.45;;
41101;SDS011;26845;50.190;19.178;2022-10-19T03:34:22;18.02;;;13.68;;
41101;SDS011;26845;50.190;19.178;2022-10-19T03:36:49;21.80;;;14.50;;
41101;SDS011;26845;50.190;19.178;2022-10-19T03:39:18;22.07;;;14.75;;
41101;SDS011;26845;50.190;19.178;2022-10-19T03:41:45;18.80;;;13.85;;
41101;SDS011;26845;50.190;19.178;2022-10-19T03:44:11;16.48;;;12.28;;
41101;SDS011;26845;50.190;19.178;2022-10-19T03:46:38;16.93;;;13.60;;
41101;SDS011;26845;50.190;19.178;2022-10-19T03:49:05;20.40;;;13.25;;
41101;SDS011;26845;50.190;19.178;2022-10-19T03:51:33;20.65;;;13.00;;
41101;SDS011;26845;50.190;19.178;2022-10-19T03:54:02;14.33;;;10.53;;
41101;SDS011;26845;50.190;19.178;2022-10-19T03:56:33;12.78;;;10.80;;
41101;SDS011;26845;50.190;19.178;2022-10-19T03:59:02;15.55;;;11.70;;
41101;SDS011;26845;50.190;19.178;2022-10-19T04:01:35;18.95;;;10.53;;
41101;SDS011;26845;50.190;19.178;2022-10-19T04:04:03;15.05;;;11.22;;
41101;SDS011;26845;50.190;19.178;2022-10-19T04:06:33;13.70;;;10.18;;
41101;SDS011;26845;50.190;19.178;2022-10-19T04:09:04;13.30;;;9.18;;
41101;SDS011;26845;50.190;19.178;2022-10-19T04:11:32;11.00;;;9.00;;
41101;SDS011;26845;50.190;19.178;2022-10-19T04:14:00;12.10;;;8.75;;
41101;SDS011;26845;50.190;19.178;2022-10-19T04:18:57;15.38;;;8.70;;
41101;SDS011;26845;50.190;19.178;2022-10-19T04:24:03;13.60;;;9.08;;
41101;SDS011;26845;50.190;19.178;2022-10-19T04:26:30;15.63;;;9.08;;
41101;SDS011;26845;50.190;19.178;2022-10-19T04:28:59;15.63;;;9.35;;
41101;SDS011;26845;50.190;19.178;2022-10-19T04:31:26;14.75;;;9.88;;
41101;SDS011;26845;50.190;19.178;2022-10-19T04:33:54;12.68;;;9.20;;
41101;SDS011;26845;50.190;19.178;2022-10-19T04:36:22;13.62;;;9.25;;
41101;SDS011;26845;50.190;19.178;2022-10-19T04:38:49;14.53;;;9.98;;
41101;SDS011;26845;50.190;19.178;2022-10-19T04:41:16;17.75;;;11.60;;
41101;SDS011;26845;50.190;19.178;2022-10-19T04:43:46;20.05;;;13.28;;
41101;SDS011;26845;50.190;19.178;2022-10-19T04:46:14;20.77;;;15.25;;
41101;SDS011;26845;50.190;19.178;2022-10-19T04:48:44;20.77;;;14.90;;
41101;SDS011;26845;50.190;19.178;2022-10-19T04:51:13;20.65;;;15.18;;
41101;SDS011;26845;50.190;19.178;2022-10-19T04:53:42;21.20;;;14.73;;
41101;SDS011;26845;50.190;19.178;2022-10-19T04:56:14;23.90;;;16.17;;
41101;SDS011;26845;50.190;19.178;2022-10-19T04:58:45;21.95;;;14.75;;
41101;SDS011;26845;50.190;19.178;2022-10-19T05:01:14;22.82;;;16.07;;
41101;SDS011;26845;50.190;19.178;2022-10-19T05:03:46;24.90;;;16.25;;
41101;SDS011;26845;50.190;19.178;2022-10-19T05:06:14;20.75;;;15.98;;
41101;SDS011;26845;50.190;19.178;2022-10-19T05:08:41;23.15;;;15.40;;
41101;SDS011;26845;50.190;19.178;2022-10-19T05:11:12;24.90;;;15.15;;
41101;SDS011;26845;50.190;19.178;2022-10-19T05:13:40;21.37;;;14.70;;
41101;SDS011;26845;50.190;19.178;2022-10-19T05:16:19;18.60;;;13.32;;
41101;SDS011;26845;50.190;19.178;2022-10-19T05:18:46;18.67;;;13.30;;
41101;SDS011;26845;50.190;19.178;2022-10-19T05:21:15;16.55;;;12.50;;
41101;SDS011;26845;50.190;19.178;2022-10-19T05:23:43;17.87;;;12.98;;
41101;SDS011;26845;50.190;19.178;2022-10-19T05:26:16;20.57;;;14.45;;
41101;SDS011;26845;50.190;19.178;2022-10-19T05:28:50;27.90;;;16.57;;
41101;SDS011;26845;50.190;19.178;2022-10-19T05:31:24;26.57;;;17.80;;
41101;SDS011;26845;50.190;19.178;2022-10-19T05:33:53;20.35;;;14.38;;
41101;SDS011;26845;50.190;19.178;2022-10-19T05:36:28;18.12;;;12.00;;
41101;SDS011;26845;50.190;19.178;2022-10-19T05:39:00;21.60;;;13.40;;
41101;SDS011;26845;50.190;19.178;2022-10-19T05:41:30;17.23;;;12.58;;
41101;SDS011;26845;50.190;19.178;2022-10-19T05:43:58;17.98;;;13.00;;
41101;SDS011;26845;50.190;19.178;2022-10-19T05:46:27;17.07;;;13.62;;
41101;SDS011;26845;50.190;19.178;2022-10-19T05:48:56;15.05;;;11.93;;
41101;SDS011;26845;50.190;19.178;2022-10-19T05:51:24;14.63;;;11.57;;
41101;SDS011;26845;50.190;19.178;2022-10-19T05:53:54;16.77;;;12.55;;
41101;SDS011;26845;50.190;19.178;2022-10-19T05:56:23;17.77;;;12.68;;
41101;SDS011;26845;50.190;19.178;2022-10-19T05:58:54;18.92;;;11.65;;
41101;SDS011;26845;50.190;19.178;2022-10-19T06:01:22;15.97;;;11.60;;
41101;SDS011;26845;50.190;19.178;2022-10-19T06:03:53;16.17;;;10.63;;
41101;SDS011;26845;50.190;19.178;2022-10-19T06:06:22;14.65;;;11.10;;
41101;SDS011;26845;50.190;19.178;2022-10-19T06:08:51;18.98;;;12.18;;
41101;SDS011;26845;50.190;19.178;2022-10-19T06:11:22;17.37;;;12.47;;
41101;SDS011;26845;50.190;19.178;2022-10-19T06:13:54;15.75;;;11.00;;
41101;SDS011;26845;50.190;19.178;2022-10-19T06:16:23;15.85;;;11.78;;
41101;SDS011;26845;50.190;19.178;2022-10-19T06:18:52;23.75;;;11.65;;
41101;SDS011;26845;50.190;19.178;2022-10-19T06:21:21;15.93;;;10.45;;
41101;SDS011;26845;50.190;19.178;2022-10-19T06:23:51;16.50;;;11.55;;
41101;SDS011;26845;50.190;19.178;2022-10-19T06:26:20;16.52;;;11.63;;
41101;SDS011;26845;50.190;19.178;2022-10-19T06:28:48;17.20;;;11.60;;
41101;SDS011;26845;50.190;19.178;2022-10-19T06:31:16;23.57;;;12.45;;
41101;SDS011;26845;50.190;19.178;2022-10-19T06:33:43;18.57;;;12.33;;
41101;SDS011;26845;50.190;19.178;2022-10-19T06:36:12;18.42;;;12.10;;
41101;SDS011;26845;50.190;19.178;2022-10-19T06:38:42;15.48;;;10.60;;
41101;SDS011;26845;50.190;19.178;2022-10-19T06:41:10;17.15;;;11.43;;
41101;SDS011;26845;50.190;19.178;2022-10-19T06:43:37;17.40;;;11.33;;
41101;SDS011;26845;50.190;19.178;2022-10-19T06:46:06;15.90;;;10.82;;
41101;SDS011;26845;50.190;19.178;2022-10-19T06:48:36;14.38;;;11.22;;
41101;SDS011;26845;50.190;19.178;2022-10-19T06:51:05;16.62;;;11.88;;
41101;SDS011;26845;50.190;19.178;2022-10-19T06:53:35;21.75;;;13.80;;
41101;SDS011;26845;50.190;19.178;2022-10-19T06:56:03;21.35;;;15.80;;
41101;SDS011;26845;50.190;19.178;2022-10-19T06:58:35;20.57;;;15.15;;
41101;SDS011;26845;50.190;19.178;2022-10-19T07:01:03;22.48;;;16.10;;
41101;SDS011;26845;50.190;19.178;2022-10-19T07:03:35;23.38;;;16.87;;
41101;SDS011;26845;50.190;19.178;2022-10-19T07:06:04;21.55;;;16.40;;
41101;SDS011;26845;50.190;19.178;2022-10-19T07:08:34;23.67;;;16.82;;
41101;SDS011;26845;50.190;19.178;2022-10-19T07:11:04;23.75;;;17.30;;
41101;SDS011;26845;50.190;19.178;2022-10-19T07:13:34;23.90;;;17.05;;
41101;SDS011;26845;50.190;19.178;2022-10-19T07:16:02;26.23;;;17.85;;
41101;SDS011;26845;50.190;19.178;2022-10-19T07:18:33;24.87;;;17.37;;
41101;SDS011;26845;50.190;19.178;2022-10-19T07:21:03;25.37;;;16.62;;
41101;SDS011;26845;50.190;19.178;2022-10-19T07:23:33;23.05;;;17.20;;
41101;SDS011;26845;50.190;19.178;2022-10-19T07:26:03;25.25;;;16.95;;
41101;SDS011;26845;50.190;19.178;2022-10-19T07:28:34;22.85;;;17.07;;
41101;SDS011;26845;50.190;19.178;2022-10-19T07:31:05;23.47;;;15.95;;
41101;SDS011;26845;50.190;19.178;2022-10-19T07:33:37;27.05;;;16.17;;
41101;SDS011;26845;50.190;19.178;2022-10-19T07:36:05;22.62;;;15.95;;
41101;SDS011;26845;50.190;19.178;2022-10-19T07:41:05;21.40;;;15.10;;
41101;SDS011;26845;50.190;19.178;2022-10-19T07:43:37;24.30;;;15.78;;
41101;SDS011;26845;50.190;19.178;2022-10-19T07:46:06;20.17;;;14.05;;
41101;SDS011;26845;50.190;19.178;2022-10-19T07:48:36;20.68;;;14.93;;
41101;SDS011;26845;50.190;19.178;2022-10-19T07:51:04;20.65;;;12.28;;
41101;SDS011;26845;50.190;19.178;2022-10-19T07:53:32;21.60;;;11.85;;
41101;SDS011;26845;50.190;19.178;2022-10-19T07:56:07;20.35;;;11.03;;
41101;SDS011;26845;50.190;19.178;2022-10-19T07:58:40;20.05;;;11.35;;
41101;SDS011;26845;50.190;19.178;2022-10-19T08:03:38;17.23;;;11.28;;
41101;SDS011;26845;50.190;19.178;2022-10-19T08:06:07;24.60;;;12.70;;
41101;SDS011;26845;50.190;19.178;2022-10-19T08:08:36;20.20;;;10.55;;
41101;SDS011;26845;50.190;19.178;2022-10-19T08:13:54;15.18;;;9.30;;
41101;SDS011;26845;50.190;19.178;2022-10-19T08:16:33;17.87;;;8.88;;
41101;SDS011;26845;50.190;19.178;2022-10-19T08:19:09;12.80;;;7.55;;
41101;SDS011;26845;50.190;19.178;2022-10-19T08:21:41;15.65;;;6.65;;
41101;SDS011;26845;50.190;19.178;2022-10-19T08:24:13;10.28;;;5.80;;
41101;SDS011;26845;50.190;19.178;2022-10-19T08:26:45;10.75;;;5.30;;
41101;SDS011;26845;50.190;19.178;2022-10-19T08:31:41;9.03;;;4.53;;
41101;SDS011;26845;50.190;19.178;2022-10-19T08:34:10;9.93;;;5.83;;
41101;SDS011;26845;50.190;19.178;2022-10-19T08:36:38;10.40;;;5.72;;
41101;SDS011;26845;50.190;19.178;2022-10-19T08:39:06;8.33;;;5.30;;
41101;SDS011;26845;50.190;19.178;2022-10-19T08:47:50;7.95;;;4.37;;
41101;SDS011;26845;50.190;19.178;2022-10-19T08:50:29;8.13;;;4.58;;
41101;SDS011;26845;50.190;19.178;2022-10-19T08:53:06;11.68;;;5.00;;
41101;SDS011;26845;50.190;19.178;2022-10-19T08:55:43;9.30;;;3.95;;
41101;SDS011;26845;50.190;19.178;2022-10-19T08:58:41;8.08;;;4.10;;
41101;SDS011;26845;50.190;19.178;2022-10-19T09:04:16;11.55;;;4.67;;
41101;SDS011;26845;50.190;19.178;2022-10-19T09:10:38;9.45;;;4.87;;
41101;SDS011;26845;50.190;19.178;2022-10-19T09:12:44;8.13;;;3.87;;
41101;SDS011;26845;50.190;19.178;2022-10-19T09:15:39;5.28;;;3.00;;
41101;SDS011;26845;50.190;19.178;2022-10-19T09:18:13;14.28;;;4.08;;
41101;SDS011;26845;50.190;19.178;2022-10-19T09:20:47;7.45;;;3.50;;
41101;SDS011;26845;50.190;19.178;2022-10-19T09:26:14;8.48;;;3.65;;
41101;SDS011;26845;50.190;19.178;2022-10-19T09:28:48;10.05;;;3.60;;
41101;SDS011;26845;50.190;19.178;2022-10-19T09:31:27;7.40;;;3.25;;
41101;SDS011;26845;50.190;19.178;2022-10-19T09:34:20;4.10;;;2.62;;
41101;SDS011;26845;50.190;19.178;2022-10-19T09:36:58;7.40;;;3.02;;
41101;SDS011;26845;50.190;19.178;2022-10-19T09:39:29;7.10;;;3.27;;
41101;SDS011;26845;50.190;19.178;2022-10-19T09:41:58;9.53;;;4.08;;
41101;SDS011;26845;50.190;19.178;2022-10-19T09:44:31;9.85;;;3.62;;
41101;SDS011;26845;50.190;19.178;2022-10-19T09:47:06;12.85;;;5.47;;
41101;SDS011;26845;50.190;19.178;2022-10-19T09:52:49;6.25;;;2.10;;
41101;SDS011;26845;50.190;19.178;2022-10-19T09:55:37;6.47;;;2.20;;
41101;SDS011;26845;50.190;19.178;2022-10-19T10:00:48;2.95;;;1.40;;
41101;SDS011;26845;50.190;19.178;2022-10-19T10:03:21;6.92;;;2.40;;
41101;SDS011;26845;50.190;19.178;2022-10-19T10:05:58;2.12;;;1.40;;
41101;SDS011;26845;50.190;19.178;2022-10-19T10:08:50;4.03;;;1.67;;
41101;SDS011;26845;50.190;19.178;2022-10-19T10:11:26;5.85;;;1.47;;
41101;SDS011;26845;50.190;19.178;2022-10-19T10:13:57;4.62;;;1.52;;
41101;SDS011;26845;50.190;19.178;2022-10-19T10:16:32;2.52;;;1.40;;
41101;SDS011;26845;50.190;19.178;2022-10-19T10:19:09;5.42;;;1.57;;
41101;SDS011;26845;50.190;19.178;2022-10-19T10:21:51;3.87;;;2.02;;
41101;SDS011;26845;50.190;19.178;2022-10-19T10:24:25;4.37;;;1.50;;
41101;SDS011;26845;50.190;19.178;2022-10-19T10:26:57;4.53;;;1.80;;
41101;SDS011;26845;50.190;19.178;2022-10-19T10:29:25;9.40;;;2.60;;
41101;SDS011;26845;50.190;19.178;2022-10-19T10:32:06;5.75;;;2.20;;
41101;SDS011;26845;50.190;19.178;2022-10-19T10:34:45;7.72;;;2.20;;
41101;SDS011;26845;50.190;19.178;2022-10-19T10:37:41;12.85;;;2.47;;
41101;SDS011;26845;50.190;19.178;2022-10-19T10:40:28;7.00;;;2.20;;
41101;SDS011;26845;50.190;19.178;2022-10-19T10:43:01;5.28;;;2.20;;
41101;SDS011;26845;50.190;19.178;2022-10-19T10:48:14;3.92;;;2.15;;
41101;SDS011;26845;50.190;19.178;2022-10-19T10:50:57;6.72;;;2.72;;
41101;SDS011;26845;50.190;19.178;2022-10-19T10:56:27;4.58;;;1.92;;
41101;SDS011;26845;50.190;19.178;2022-10-19T10:58:58;5.28;;;2.25;;
41101;SDS011;26845;50.190;19.178;2022-10-19T11:01:38;7.17;;;2.10;;
41101;SDS011;26845;50.190;19.178;2022-10-19T11:04:12;3.60;;;1.90;;
41101;SDS011;26845;50.190;19.178;2022-10-19T11:06:51;4.40;;;1.65;;
41101;SDS011;26845;50.190;19.178;2022-10-19T11:12:03;7.15;;;2.30;;
41101;SDS011;26845;50.190;19.178;2022-10-19T11:14:35;6.30;;;2.30;;
41101;SDS011;26845;50.190;19.178;2022-10-19T11:17:20;4.92;;;2.35;;
41101;SDS011;26845;50.190;19.178;2022-10-19T11:19:55;4.67;;;2.70;;
41101;SDS011;26845;50.190;19.178;2022-10-19T11:22:30;7.17;;;2.98;;
41101;SDS011;26845;50.190;19.178;2022-10-19T11:25:21;6.30;;;2.30;;
41101;SDS011;26845;50.190;19.178;2022-10-19T11:31:20;3.02;;;2.00;;
41101;SDS011;26845;50.190;19.178;2022-10-19T11:50:53;6.25;;;2.35;;
41101;SDS011;26845;50.190;19.178;2022-10-19T11:56:36;5.62;;;2.02;;
41101;SDS011;26845;50.190;19.178;2022-10-19T11:59:14;8.45;;;2.80;;
41101;SDS011;26845;50.190;19.178;2022-10-19T12:05:30;6.47;;;2.62;;
41101;SDS011;26845;50.190;19.178;2022-10-19T12:08:00;6.60;;;2.60;;
41101;SDS011;26845;50.190;19.178;2022-10-19T12:10:42;7.60;;;3.12;;
41101;SDS011;26845;50.190;19.178;2022-10-19T12:16:09;7.67;;;2.60;;
41101;SDS011;26845;50.190;19.178;2022-10-19T12:18:45;5.78;;;2.30;;
41101;SDS011;26845;50.190;19.178;2022-10-19T12:21:23;7.20;;;1.60;;
41101;SDS011;26845;50.190;19.178;2022-10-19T12:23:57;3.65;;;1.90;;
41101;SDS011;26845;50.190;19.178;2022-10-19T12:26:29;5.40;;;1.95;;
41101;SDS011;26845;50.190;19.178;2022-10-19T12:29:04;4.33;;;1.50;;
41101;SDS011;26845;50.190;19.178;2022-10-19T12:31:39;4.10;;;1.55;;
41101;SDS011;26845;50.190;19.178;2022-10-19T12:34:54;7.95;;;2.30;;
41101;SDS011;26845;50.190;19.178;2022-10-19T12:44:56;6.80;;;2.20;;
41101;SDS011;26845;50.190;19.178;2022-10-19T12:53:24;6.42;;;2.10;;
41101;SDS011;26845;50.190;19.178;2022-10-19T12:56:04;3.87;;;1.40;;
41101;SDS011;26845;50.190;19.178;2022-10-19T13:01:19;4.65;;;1.80;;
41101;SDS011;26845;50.190;19.178;2022-10-19T13:04:05;5.17;;;2.10;;
41101;SDS011;26845;50.190;19.178;2022-10-19T13:06:38;5.65;;;2.45;;
41101;SDS011;26845;50.190;19.178;2022-10-19T13:09:20;5.20;;;2.25;;
41101;SDS011;26845;50.190;19.178;2022-10-19T13:14:57;6.08;;;2.22;;
41101;SDS011;26845;50.190;19.178;2022-10-19T13:25:42;6.33;;;3.33;;
41101;SDS011;26845;50.190;19.178;2022-10-19T13:36:06;4.92;;;2.00;;
41101;SDS011;26845;50.190;19.178;2022-10-19T13:38:42;5.85;;;2.92;;
41101;SDS011;26845;50.190;19.178;2022-10-19T13:41:20;6.53;;;2.27;;
41101;SDS011;26845;50.190;19.178;2022-10-19T13:53:20;4.22;;;3.02;;
41101;SDS011;26845;50.190;19.178;2022-10-19T14:11:14;7.47;;;2.70;;
41101;SDS011;26845;50.190;19.178;2022-10-19T14:13:46;8.98;;;3.20;;
41101;SDS011;26845;50.190;19.178;2022-10-19T14:16:21;6.33;;;2.83;;
41101;SDS011;26845;50.190;19.178;2022-10-19T14:18:54;5.80;;;3.27;;
41101;SDS011;26845;50.190;19.178;2022-10-19T14:21:33;5.25;;;2.87;;
41101;SDS011;26845;50.190;19.178;2022-10-19T14:24:18;4.97;;;3.00;;
41101;SDS011;26845;50.190;19.178;2022-10-19T14:27:05;7.47;;;3.33;;
41101;SDS011;26845;50.190;19.178;2022-10-19T14:29:41;9.03;;;3.30;;
41101;SDS011;26845;50.190;19.178;2022-10-19T14:32:12;6.87;;;3.30;;
41101;SDS011;26845;50.190;19.178;2022-10-19T14:34:42;9.08;;;3.80;;
41101;SDS011;26845;50.190;19.178;2022-10-19T14:37:21;5.90;;;3.50;;
41101;SDS011;26845;50.190;19.178;2022-10-19T14:39:57;5.58;;;2.50;;
41101;SDS011;26845;50.190;19.178;2022-10-19T14:42:50;4.37;;;2.62;;
41101;SDS011;26845;50.190;19.178;2022-10-19T14:45:20;5.62;;;2.58;;
41101;SDS011;26845;50.190;19.178;2022-10-19T14:48:05;6.37;;;4.05;;
41101;SDS011;26845;50.190;19.178;2022-10-19T14:50:52;9.75;;;5.03;;
41101;SDS011;26845;50.190;19.178;2022-10-19T14:56:36;6.30;;;2.47;;
41101;SDS011;26845;50.190;19.178;2022-10-19T15:02:12;14.78;;;5.85;;
41101;SDS011;26845;50.190;19.178;2022-10-19T15:04:56;7.37;;;4.13;;
41101;SDS011;26845;50.190;19.178;2022-10-19T15:07:32;6.80;;;2.83;;
41101;SDS011;26845;50.190;19.178;2022-10-19T15:10:07;3.20;;;2.27;;
41101;SDS011;26845;50.190;19.178;2022-10-19T15:12:47;5.33;;;2.50;;
41101;SDS011;26845;50.190;19.178;2022-10-19T15:15:29;4.15;;;2.10;;
41101;SDS011;26845;50.190;19.178;2022-10-19T15:20:31;6.42;;;2.70;;
41101;SDS011;26845;50.190;19.178;2022-10-19T15:23:28;3.42;;;2.35;;
41101;SDS011;26845;50.190;19.178;2022-10-19T15:26:16;3.67;;;2.25;;
41101;SDS011;26845;50.190;19.178;2022-10-19T15:28:54;11.10;;;6.45;;
41101;SDS011;26845;50.190;19.178;2022-10-19T15:31:45;28.15;;;11.90;;
41101;SDS011;26845;50.190;19.178;2022-10-19T15:34:29;13.00;;;5.60;;
41101;SDS011;26845;50.190;19.178;2022-10-19T15:37:00;13.62;;;7.03;;
41101;SDS011;26845;50.190;19.178;2022-10-19T15:39:30;17.92;;;8.63;;
41101;SDS011;26845;50.190;19.178;2022-10-19T15:44:51;14.45;;;6.45;;
41101;SDS011;26845;50.190;19.178;2022-10-19T15:47:19;9.95;;;5.00;;
41101;SDS011;26845;50.190;19.178;2022-10-19T15:49:58;12.47;;;5.55;;
41101;SDS011;26845;50.190;19.178;2022-10-19T15:52:28;16.37;;;6.35;;
41101;SDS011;26845;50.190;19.178;2022-10-19T15:54:58;15.18;;;5.53;;
41101;SDS011;26845;50.190;19.178;2022-10-19T15:57:33;11.43;;;6.27;;
41101;SDS011;26845;50.190;19.178;2022-10-19T16:00:13;10.90;;;6.97;;
41101;SDS011;26845;50.190;19.178;2022-10-19T16:02:42;9.40;;;6.65;;
41101;SDS011;26845;50.190;19.178;2022-10-19T16:05:09;10.08;;;5.22;;
41101;SDS011;26845;50.190;19.178;2022-10-19T16:07:37;11.50;;;6.87;;
41101;SDS011;26845;50.190;19.178;2022-10-19T16:10:06;16.32;;;9.80;;
41101;SDS011;26845;50.190;19.178;2022-10-19T16:15:02;12.15;;;6.87;;
41101;SDS011;26845;50.190;19.178;2022-10-19T16:17:29;9.60;;;6.08;;
41101;SDS011;26845;50.190;19.178;2022-10-19T16:19:56;11.95;;;6.58;;
41101;SDS011;26845;50.190;19.178;2022-10-19T16:22:22;13.80;;;6.83;;
41101;SDS011;26845;50.190;19.178;2022-10-19T16:24:49;14.93;;;7.30;;
41101;SDS011;26845;50.190;19.178;2022-10-19T16:27:16;12.60;;;7.22;;
41101;SDS011;26845;50.190;19.178;2022-10-19T16:29:43;17.57;;;6.55;;
41101;SDS011;26845;50.190;19.178;2022-10-19T16:32:10;12.37;;;5.72;;
41101;SDS011;26845;50.190;19.178;2022-10-19T16:34:37;14.90;;;5.28;;
41101;SDS011;26845;50.190;19.178;2022-10-19T16:37:04;9.80;;;5.47;;
41101;SDS011;26845;50.190;19.178;2022-10-19T16:39:30;8.63;;;4.35;;
41101;SDS011;26845;50.190;19.178;2022-10-19T16:41:57;9.68;;;4.72;;
41101;SDS011;26845;50.190;19.178;2022-10-19T16:44:23;11.70;;;5.90;;
41101;SDS011;26845;50.190;19.178;2022-10-19T16:46:50;8.65;;;4.80;;
41101;SDS011;26845;50.190;19.178;2022-10-19T16:49:17;8.75;;;4.72;;
41101;SDS011;26845;50.190;19.178;2022-10-19T16:51:43;10.68;;;5.90;;
41101;SDS011;26845;50.190;19.178;2022-10-19T16:54:15;10.88;;;4.95;;
41101;SDS011;26845;50.190;19.178;2022-10-19T16:56:48;10.05;;;4.85;;
41101;SDS011;26845;50.190;19.178;2022-10-19T16:59:15;10.43;;;5.08;;
41101;SDS011;26845;50.190;19.178;2022-10-19T17:01:44;15.35;;;5.65;;
41101;SDS011;26845;50.190;19.178;2022-10-19T17:04:12;11.50;;;5.55;;
41101;SDS011;26845;50.190;19.178;2022-10-19T17:06:42;8.08;;;5.05;;
41101;SDS011;26845;50.190;19.178;2022-10-19T17:09:09;9.45;;;5.60;;
41101;SDS011;26845;50.190;19.178;2022-10-19T17:11:36;10.23;;;5.97;;
41101;SDS011;26845;50.190;19.178;2022-10-19T17:14:05;12.78;;;6.78;;
41101;SDS011;26845;50.190;19.178;2022-10-19T17:16:35;13.32;;;6.90;;
41101;SDS011;26845;50.190;19.178;2022-10-19T17:19:04;18.45;;;7.28;;
41101;SDS011;26845;50.190;19.178;2022-10-19T17:21:33;14.33;;;7.47;;
41101;SDS011;26845;50.190;19.178;2022-10-19T17:24:07;12.30;;;7.53;;
41101;SDS011;26845;50.190;19.178;2022-10-19T17:26:41;82.37;;;10.38;;
41101;SDS011;26845;50.190;19.178;2022-10-19T17:29:10;17.62;;;8.45;;
41101;SDS011;26845;50.190;19.178;2022-10-19T17:31:38;14.68;;;6.53;;
41101;SDS011;26845;50.190;19.178;2022-10-19T17:34:06;16.30;;;9.00;;